sensor_id;sensor_type;location;lat;lon;timestamp;temperature;humidity
13806;DHT22;6974;53.606;9.872;2022-08-19T00:00:48;21.30;99.90
13806;DHT22;6974;53.606;9.872;2022-08-19T00:03:16;21.30;99.90
13806;DHT22;6974;53.606;9.872;2022-08-19T00:05:44;21.30;99.90
13806;DHT22;6974;53.606;9.872;2022-08-19T00:08:11;21.30;99.90
13806;DHT22;6974;53.606;9.872;2022-08-19T00:10:38;21.30;99.90
13806;DHT22;6974;53.606;9.872;2022-08-19T00:13:05;21.20;99.90
13806;DHT22;6974;53.606;9.872;2022-08-19T00:15:32;21.20;99.90
13806;DHT22;6974;53.606;9.872;2022-08-19T00:17:59;21.20;99.90
13806;DHT22;6974;53.606;9.872;2022-08-19T00:20:26;21.30;99.90
13806;DHT22;6974;53.606;9.872;2022-08-19T00:22:54;21.30;99.90
13806;DHT22;6974;53.606;9.872;2022-08-19T00:25:21;21.30;99.90
13806;DHT22;6974;53.606;9.872;2022-08-19T00:27:48;21.30;99.90
13806;DHT22;6974;53.606;9.872;2022-08-19T00:30:15;21.30;99.90
13806;DHT22;6974;53.606;9.872;2022-08-19T00:32:42;21.20;99.90
13806;DHT22;6974;53.606;9.872;2022-08-19T00:35:09;21.20;99.90
13806;DHT22;6974;53.606;9.872;2022-08-19T00:37:37;21.20;99.90
13806;DHT22;6974;53.606;9.872;2022-08-19T00:40:11;21.20;99.90
13806;DHT22;6974;53.606;9.872;2022-08-19T00:42:39;21.20;99.90
13806;DHT22;6974;53.606;9.872;2022-08-19T00:45:11;21.10;99.90
13806;DHT22;6974;53.606;9.872;2022-08-19T00:47:39;21.20;99.90
13806;DHT22;6974;53.606;9.872;2022-08-19T00:50:08;21.20;99.90
13806;DHT22;6974;53.606;9.872;2022-08-19T00:52:38;21.20;99.90
13806;DHT22;6974;53.606;9.872;2022-08-19T00:55:14;21.20;99.90
13806;DHT22;6974;53.606;9.872;2022-08-19T00:57:45;21.20;99.90
13806;DHT22;6974;53.606;9.872;2022-08-19T01:00:15;21.20;99.90
13806;DHT22;6974;53.606;9.872;2022-08-19T01:02:43;21.10;99.90
13806;DHT22;6974;53.606;9.872;2022-08-19T01:05:13;21.10;99.90
13806;DHT22;6974;53.606;9.872;2022-08-19T01:07:41;21.10;99.90
13806;DHT22;6974;53.606;9.872;2022-08-19T01:10:13;21.00;99.90
13806;DHT22;6974;53.606;9.872;2022-08-19T01:12:41;21.00;99.90
13806;DHT22;6974;53.606;9.872;2022-08-19T01:15:11;21.00;99.90
13806;DHT22;6974;53.606;9.872;2022-08-19T01:17:40;21.00;99.90
13806;DHT22;6974;53.606;9.872;2022-08-19T01:20:12;20.90;99.90
13806;DHT22;6974;53.606;9.872;2022-08-19T01:22:44;20.90;99.90
13806;DHT22;6974;53.606;9.872;2022-08-19T01:25:12;20.90;99.90
13806;DHT22;6974;53.606;9.872;2022-08-19T01:27:41;20.90;99.90
13806;DHT22;6974;53.606;9.872;2022-08-19T01:30:10;20.90;99.90
13806;DHT22;6974;53.606;9.872;2022-08-19T01:32:38;20.90;99.90
13806;DHT22;6974;53.606;9.872;2022-08-19T01:35:06;20.90;99.90
13806;DHT22;6974;53.606;9.872;2022-08-19T01:37:43;20.90;99.90
13806;DHT22;6974;53.606;9.872;2022-08-19T01:40:11;20.90;99.90
13806;DHT22;6974;53.606;9.872;2022-08-19T01:42:37;20.80;99.90
13806;DHT22;6974;53.606;9.872;2022-08-19T01:45:05;20.90;99.90
13806;DHT22;6974;53.606;9.872;2022-08-19T01:47:34;20.80;99.90
13806;DHT22;6974;53.606;9.872;2022-08-19T01:50:01;20.90;99.90
13806;DHT22;6974;53.606;9.872;2022-08-19T01:52:28;20.90;99.90
13806;DHT22;6974;53.606;9.872;2022-08-19T01:54:56;20.90;99.90
13806;DHT22;6974;53.606;9.872;2022-08-19T01:57:23;20.90;99.90
13806;DHT22;6974;53.606;9.872;2022-08-19T01:59:50;20.90;99.90
13806;DHT22;6974;53.606;9.872;2022-08-19T02:02:17;20.80;99.90
13806;DHT22;6974;53.606;9.872;2022-08-19T02:04:43;20.80;99.90
13806;DHT22;6974;53.606;9.872;2022-08-19T02:07:11;20.70;99.90
13806;DHT22;6974;53.606;9.872;2022-08-19T02:09:38;20.70;99.90
13806;DHT22;6974;53.606;9.872;2022-08-19T02:12:07;20.70;99.90
13806;DHT22;6974;53.606;9.872;2022-08-19T02:14:34;20.70;99.90
13806;DHT22;6974;53.606;9.872;2022-08-19T02:17:01;20.70;99.90
13806;DHT22;6974;53.606;9.872;2022-08-19T02:19:28;20.70;99.90
13806;DHT22;6974;53.606;9.872;2022-08-19T02:21:57;20.70;99.90
13806;DHT22;6974;53.606;9.872;2022-08-19T02:24:24;20.70;99.90
13806;DHT22;6974;53.606;9.872;2022-08-19T02:26:52;20.80;99.90
13806;DHT22;6974;53.606;9.872;2022-08-19T02:29:20;20.70;99.90
13806;DHT22;6974;53.606;9.872;2022-08-19T02:31:47;20.70;99.90
13806;DHT22;6974;53.606;9.872;2022-08-19T02:34:14;20.70;99.90
13806;DHT22;6974;53.606;9.872;2022-08-19T02:36:41;20.60;99.90
13806;DHT22;6974;53.606;9.872;2022-08-19T02:39:08;20.50;99.90
13806;DHT22;6974;53.606;9.872;2022-08-19T02:41:34;20.50;99.90
13806;DHT22;6974;53.606;9.872;2022-08-19T02:44:02;20.50;99.90
13806;DHT22;6974;53.606;9.872;2022-08-19T02:46:32;20.40;99.90
13806;DHT22;6974;53.606;9.872;2022-08-19T02:49:03;20.40;99.90
13806;DHT22;6974;53.606;9.872;2022-08-19T02:51:33;20.40;99.90
13806;DHT22;6974;53.606;9.872;2022-08-19T02:54:01;20.40;99.90
13806;DHT22;6974;53.606;9.872;2022-08-19T02:56:29;20.40;99.90
13806;DHT22;6974;53.606;9.872;2022-08-19T02:58:57;20.40;99.90
13806;DHT22;6974;53.606;9.872;2022-08-19T03:01:27;20.50;99.90
13806;DHT22;6974;53.606;9.872;2022-08-19T03:03:56;20.50;99.90
13806;DHT22;6974;53.606;9.872;2022-08-19T03:06:24;20.50;99.90
13806;DHT22;6974;53.606;9.872;2022-08-19T03:08:52;20.50;99.90
13806;DHT22;6974;53.606;9.872;2022-08-19T03:11:21;20.50;99.90
13806;DHT22;6974;53.606;9.872;2022-08-19T03:13:49;20.50;99.90
13806;DHT22;6974;53.606;9.872;2022-08-19T03:16:17;20.50;99.90
13806;DHT22;6974;53.606;9.872;2022-08-19T03:18:44;20.40;99.90
13806;DHT22;6974;53.606;9.872;2022-08-19T03:21:17;20.40;99.90
13806;DHT22;6974;53.606;9.872;2022-08-19T03:23:44;20.40;99.90
13806;DHT22;6974;53.606;9.872;2022-08-19T03:26:11;20.40;99.90
13806;DHT22;6974;53.606;9.872;2022-08-19T03:28:40;20.40;99.90
13806;DHT22;6974;53.606;9.872;2022-08-19T03:31:10;20.30;99.90
13806;DHT22;6974;53.606;9.872;2022-08-19T03:33:37;20.20;99.90
13806;DHT22;6974;53.606;9.872;2022-08-19T03:36:08;20.20;99.90
13806;DHT22;6974;53.606;9.872;2022-08-19T03:38:37;20.20;99.90
13806;DHT22;6974;53.606;9.872;2022-08-19T03:41:06;20.20;99.90
13806;DHT22;6974;53.606;9.872;2022-08-19T03:43:35;20.20;99.90
13806;DHT22;6974;53.606;9.872;2022-08-19T03:46:07;20.20;99.90
13806;DHT22;6974;53.606;9.872;2022-08-19T03:48:35;20.20;99.90
13806;DHT22;6974;53.606;9.872;2022-08-19T03:51:02;20.20;99.90
13806;DHT22;6974;53.606;9.872;2022-08-19T03:53:30;20.20;99.90
13806;DHT22;6974;53.606;9.872;2022-08-19T03:55:59;20.20;99.90
13806;DHT22;6974;53.606;9.872;2022-08-19T03:58:27;20.20;99.90
13806;DHT22;6974;53.606;9.872;2022-08-19T04:00:55;20.20;99.90
13806;DHT22;6974;53.606;9.872;2022-08-19T04:03:22;20.20;99.90
13806;DHT22;6974;53.606;9.872;2022-08-19T04:05:50;20.20;99.90
13806;DHT22;6974;53.606;9.872;2022-08-19T04:08:17;20.20;99.90
13806;DHT22;6974;53.606;9.872;2022-08-19T04:10:46;20.20;99.90
13806;DHT22;6974;53.606;9.872;2022-08-19T04:13:14;20.10;99.90
13806;DHT22;6974;53.606;9.872;2022-08-19T04:15:44;20.10;99.90
13806;DHT22;6974;53.606;9.872;2022-08-19T04:18:12;20.10;99.90
13806;DHT22;6974;53.606;9.872;2022-08-19T04:20:42;20.10;99.90
13806;DHT22;6974;53.606;9.872;2022-08-19T04:23:09;20.10;99.90
13806;DHT22;6974;53.606;9.872;2022-08-19T04:25:37;20.10;99.90
13806;DHT22;6974;53.606;9.872;2022-08-19T04:28:04;20.10;99.90
13806;DHT22;6974;53.606;9.872;2022-08-19T04:30:39;20.10;99.90
13806;DHT22;6974;53.606;9.872;2022-08-19T04:33:05;20.10;99.90
13806;DHT22;6974;53.606;9.872;2022-08-19T04:35:36;20.10;99.90
13806;DHT22;6974;53.606;9.872;2022-08-19T04:38:03;20.10;99.90
13806;DHT22;6974;53.606;9.872;2022-08-19T04:40:30;20.10;99.90
13806;DHT22;6974;53.606;9.872;2022-08-19T04:43:14;20.10;99.90
13806;DHT22;6974;53.606;9.872;2022-08-19T04:45:43;20.00;99.90
13806;DHT22;6974;53.606;9.872;2022-08-19T04:48:11;20.10;99.90
13806;DHT22;6974;53.606;9.872;2022-08-19T04:50:40;20.10;99.90
13806;DHT22;6974;53.606;9.872;2022-08-19T04:53:08;20.10;99.90
13806;DHT22;6974;53.606;9.872;2022-08-19T04:55:39;20.10;99.90
13806;DHT22;6974;53.606;9.872;2022-08-19T04:58:05;20.10;99.90
13806;DHT22;6974;53.606;9.872;2022-08-19T05:00:32;20.00;99.90
13806;DHT22;6974;53.606;9.872;2022-08-19T05:03:01;20.00;99.90
13806;DHT22;6974;53.606;9.872;2022-08-19T05:05:27;20.00;99.90
13806;DHT22;6974;53.606;9.872;2022-08-19T05:07:56;20.00;99.90
13806;DHT22;6974;53.606;9.872;2022-08-19T05:10:23;20.00;99.90
13806;DHT22;6974;53.606;9.872;2022-08-19T05:12:50;20.00;99.90
13806;DHT22;6974;53.606;9.872;2022-08-19T05:15:17;20.00;99.90
13806;DHT22;6974;53.606;9.872;2022-08-19T05:17:44;20.00;99.90
13806;DHT22;6974;53.606;9.872;2022-08-19T05:20:32;20.00;99.90
13806;DHT22;6974;53.606;9.872;2022-08-19T05:23:31;20.00;99.90
13806;DHT22;6974;53.606;9.872;2022-08-19T05:25:58;20.00;99.90
13806;DHT22;6974;53.606;9.872;2022-08-19T05:28:24;20.00;99.90
13806;DHT22;6974;53.606;9.872;2022-08-19T05:30:52;20.00;99.90
13806;DHT22;6974;53.606;9.872;2022-08-19T05:33:21;20.00;99.90
13806;DHT22;6974;53.606;9.872;2022-08-19T05:35:50;20.00;99.90
13806;DHT22;6974;53.606;9.872;2022-08-19T05:38:18;19.90;99.90
13806;DHT22;6974;53.606;9.872;2022-08-19T05:40:45;19.90;99.90
13806;DHT22;6974;53.606;9.872;2022-08-19T05:43:14;19.90;99.90
13806;DHT22;6974;53.606;9.872;2022-08-19T05:45:42;19.90;99.90
13806;DHT22;6974;53.606;9.872;2022-08-19T05:48:09;19.90;99.90
13806;DHT22;6974;53.606;9.872;2022-08-19T05:50:38;20.00;99.90
13806;DHT22;6974;53.606;9.872;2022-08-19T05:53:06;19.90;99.90
13806;DHT22;6974;53.606;9.872;2022-08-19T05:55:35;19.90;99.90
13806;DHT22;6974;53.606;9.872;2022-08-19T05:58:03;19.90;99.90
13806;DHT22;6974;53.606;9.872;2022-08-19T06:00:32;19.90;99.90
13806;DHT22;6974;53.606;9.872;2022-08-19T06:02:59;19.90;99.90
13806;DHT22;6974;53.606;9.872;2022-08-19T06:05:28;19.90;99.90
13806;DHT22;6974;53.606;9.872;2022-08-19T06:07:56;19.90;99.90
13806;DHT22;6974;53.606;9.872;2022-08-19T06:10:25;19.90;99.90
13806;DHT22;6974;53.606;9.872;2022-08-19T06:12:52;20.00;99.90
13806;DHT22;6974;53.606;9.872;2022-08-19T06:15:19;19.90;99.90
13806;DHT22;6974;53.606;9.872;2022-08-19T06:17:47;19.90;99.90
13806;DHT22;6974;53.606;9.872;2022-08-19T06:20:15;19.90;99.90
13806;DHT22;6974;53.606;9.872;2022-08-19T06:22:45;19.90;99.90
13806;DHT22;6974;53.606;9.872;2022-08-19T06:25:14;19.90;99.90
13806;DHT22;6974;53.606;9.872;2022-08-19T06:27:43;19.90;99.90
13806;DHT22;6974;53.606;9.872;2022-08-19T06:30:11;19.90;99.90
13806;DHT22;6974;53.606;9.872;2022-08-19T06:32:39;19.90;99.90
13806;DHT22;6974;53.606;9.872;2022-08-19T06:35:07;19.90;99.90
13806;DHT22;6974;53.606;9.872;2022-08-19T06:37:34;19.90;99.90
13806;DHT22;6974;53.606;9.872;2022-08-19T06:40:01;20.00;99.90
13806;DHT22;6974;53.606;9.872;2022-08-19T06:42:27;20.00;99.90
13806;DHT22;6974;53.606;9.872;2022-08-19T06:44:56;20.00;99.90
13806;DHT22;6974;53.606;9.872;2022-08-19T06:47:23;20.00;99.90
13806;DHT22;6974;53.606;9.872;2022-08-19T06:49:53;20.00;99.90
13806;DHT22;6974;53.606;9.872;2022-08-19T06:52:21;20.10;99.90
13806;DHT22;6974;53.606;9.872;2022-08-19T06:54:49;20.10;99.90
13806;DHT22;6974;53.606;9.872;2022-08-19T06:57:16;20.10;99.90
13806;DHT22;6974;53.606;9.872;2022-08-19T06:59:42;20.10;99.90
13806;DHT22;6974;53.606;9.872;2022-08-19T07:02:11;20.10;99.90
13806;DHT22;6974;53.606;9.872;2022-08-19T07:04:38;20.10;99.90
13806;DHT22;6974;53.606;9.872;2022-08-19T07:07:08;20.10;99.90
13806;DHT22;6974;53.606;9.872;2022-08-19T07:09:39;20.10;99.90
13806;DHT22;6974;53.606;9.872;2022-08-19T07:12:07;20.10;99.90
13806;DHT22;6974;53.606;9.872;2022-08-19T07:14:37;20.10;99.90
13806;DHT22;6974;53.606;9.872;2022-08-19T07:17:05;20.10;99.90
13806;DHT22;6974;53.606;9.872;2022-08-19T07:19:35;20.10;99.90
13806;DHT22;6974;53.606;9.872;2022-08-19T07:22:02;20.10;99.90
13806;DHT22;6974;53.606;9.872;2022-08-19T07:24:30;20.20;99.90
13806;DHT22;6974;53.606;9.872;2022-08-19T07:27:00;20.10;99.90
13806;DHT22;6974;53.606;9.872;2022-08-19T07:29:29;20.10;99.90
13806;DHT22;6974;53.606;9.872;2022-08-19T07:31:59;20.10;99.90
13806;DHT22;6974;53.606;9.872;2022-08-19T07:34:27;20.10;99.90
13806;DHT22;6974;53.606;9.872;2022-08-19T07:36:56;20.10;99.90
13806;DHT22;6974;53.606;9.872;2022-08-19T07:39:25;20.10;99.90
13806;DHT22;6974;53.606;9.872;2022-08-19T07:41:54;20.10;99.90
13806;DHT22;6974;53.606;9.872;2022-08-19T07:44:22;20.10;99.90
13806;DHT22;6974;53.606;9.872;2022-08-19T07:46:52;20.10;99.90
13806;DHT22;6974;53.606;9.872;2022-08-19T07:49:19;20.20;99.90
13806;DHT22;6974;53.606;9.872;2022-08-19T07:51:48;20.20;99.90
13806;DHT22;6974;53.606;9.872;2022-08-19T07:54:18;20.20;99.90
13806;DHT22;6974;53.606;9.872;2022-08-19T07:56:45;20.30;99.90
13806;DHT22;6974;53.606;9.872;2022-08-19T07:59:12;20.30;99.90
13806;DHT22;6974;53.606;9.872;2022-08-19T08:01:39;20.30;99.90
13806;DHT22;6974;53.606;9.872;2022-08-19T08:04:07;20.30;99.90
13806;DHT22;6974;53.606;9.872;2022-08-19T08:06:51;20.30;99.90
13806;DHT22;6974;53.606;9.872;2022-08-19T08:09:38;20.30;99.90
13806;DHT22;6974;53.606;9.872;2022-08-19T08:12:08;20.30;99.90
13806;DHT22;6974;53.606;9.872;2022-08-19T08:14:38;20.30;99.90
13806;DHT22;6974;53.606;9.872;2022-08-19T08:17:07;20.30;99.90
13806;DHT22;6974;53.606;9.872;2022-08-19T08:19:34;20.30;99.90
13806;DHT22;6974;53.606;9.872;2022-08-19T08:22:02;20.30;99.90
13806;DHT22;6974;53.606;9.872;2022-08-19T08:24:31;20.30;99.90
13806;DHT22;6974;53.606;9.872;2022-08-19T08:27:00;20.30;99.90
13806;DHT22;6974;53.606;9.872;2022-08-19T08:29:29;20.30;99.90
13806;DHT22;6974;53.606;9.872;2022-08-19T08:31:56;20.30;99.90
13806;DHT22;6974;53.606;9.872;2022-08-19T08:34:23;20.40;99.90
13806;DHT22;6974;53.606;9.872;2022-08-19T08:36:50;20.40;99.90
13806;DHT22;6974;53.606;9.872;2022-08-19T08:39:18;20.40;99.90
13806;DHT22;6974;53.606;9.872;2022-08-19T08:41:51;20.50;99.90
13806;DHT22;6974;53.606;9.872;2022-08-19T08:44:23;20.50;99.90
13806;DHT22;6974;53.606;9.872;2022-08-19T08:46:58;20.50;99.90
13806;DHT22;6974;53.606;9.872;2022-08-19T08:49:31;20.50;99.90
13806;DHT22;6974;53.606;9.872;2022-08-19T08:52:03;20.50;99.90
13806;DHT22;6974;53.606;9.872;2022-08-19T08:54:34;20.50;99.90
13806;DHT22;6974;53.606;9.872;2022-08-19T08:57:04;20.50;99.90
13806;DHT22;6974;53.606;9.872;2022-08-19T08:59:38;20.50;99.90
13806;DHT22;6974;53.606;9.872;2022-08-19T09:02:07;20.50;99.90
13806;DHT22;6974;53.606;9.872;2022-08-19T09:04:34;20.50;99.90
13806;DHT22;6974;53.606;9.872;2022-08-19T09:07:13;20.60;99.90
13806;DHT22;6974;53.606;9.872;2022-08-19T09:09:48;20.60;99.90
13806;DHT22;6974;53.606;9.872;2022-08-19T09:12:21;20.60;99.90
13806;DHT22;6974;53.606;9.872;2022-08-19T09:14:56;20.60;99.90
13806;DHT22;6974;53.606;9.872;2022-08-19T09:17:26;20.60;99.90
13806;DHT22;6974;53.606;9.872;2022-08-19T09:19:58;20.60;99.90
13806;DHT22;6974;53.606;9.872;2022-08-19T09:22:29;20.60;99.90
13806;DHT22;6974;53.606;9.872;2022-08-19T09:24:56;20.60;99.90
13806;DHT22;6974;53.606;9.872;2022-08-19T09:27:24;20.70;99.90
13806;DHT22;6974;53.606;9.872;2022-08-19T09:29:54;20.70;99.90
13806;DHT22;6974;53.606;9.872;2022-08-19T09:32:22;20.60;99.90
13806;DHT22;6974;53.606;9.872;2022-08-19T09:34:49;20.60;99.90
13806;DHT22;6974;53.606;9.872;2022-08-19T09:37:18;20.50;99.90
13806;DHT22;6974;53.606;9.872;2022-08-19T09:39:45;20.60;99.90
13806;DHT22;6974;53.606;9.872;2022-08-19T09:42:12;20.60;99.90
13806;DHT22;6974;53.606;9.872;2022-08-19T09:44:39;20.60;99.90
13806;DHT22;6974;53.606;9.872;2022-08-19T09:47:09;20.60;99.90
13806;DHT22;6974;53.606;9.872;2022-08-19T09:49:36;20.60;99.90
13806;DHT22;6974;53.606;9.872;2022-08-19T09:52:04;20.70;99.90
13806;DHT22;6974;53.606;9.872;2022-08-19T09:54:33;20.70;99.90
13806;DHT22;6974;53.606;9.872;2022-08-19T09:57:00;20.60;99.90
13806;DHT22;6974;53.606;9.872;2022-08-19T09:59:27;20.60;99.90
13806;DHT22;6974;53.606;9.872;2022-08-19T10:01:55;20.60;99.90
13806;DHT22;6974;53.606;9.872;2022-08-19T10:04:23;20.50;99.90
13806;DHT22;6974;53.606;9.872;2022-08-19T10:07:10;20.50;99.90
13806;DHT22;6974;53.606;9.872;2022-08-19T10:09:37;20.50;99.90
13806;DHT22;6974;53.606;9.872;2022-08-19T10:12:05;20.60;99.90
13806;DHT22;6974;53.606;9.872;2022-08-19T10:14:33;20.60;99.90
13806;DHT22;6974;53.606;9.872;2022-08-19T10:17:01;20.60;99.90
13806;DHT22;6974;53.606;9.872;2022-08-19T10:19:30;20.60;99.90
13806;DHT22;6974;53.606;9.872;2022-08-19T10:22:03;20.60;99.90
13806;DHT22;6974;53.606;9.872;2022-08-19T10:24:31;20.60;99.90
13806;DHT22;6974;53.606;9.872;2022-08-19T10:26:59;20.60;99.90
13806;DHT22;6974;53.606;9.872;2022-08-19T10:29:26;20.50;99.90
13806;DHT22;6974;53.606;9.872;2022-08-19T10:31:53;20.50;99.90
13806;DHT22;6974;53.606;9.872;2022-08-19T10:34:21;20.50;99.90
13806;DHT22;6974;53.606;9.872;2022-08-19T10:36:49;20.50;99.90
13806;DHT22;6974;53.606;9.872;2022-08-19T10:39:16;20.60;99.90
13806;DHT22;6974;53.606;9.872;2022-08-19T10:41:43;20.60;99.90
13806;DHT22;6974;53.606;9.872;2022-08-19T10:44:11;20.60;99.90
13806;DHT22;6974;53.606;9.872;2022-08-19T10:46:40;20.70;99.90
13806;DHT22;6974;53.606;9.872;2022-08-19T10:49:09;20.70;99.90
13806;DHT22;6974;53.606;9.872;2022-08-19T10:51:37;20.70;99.90
13806;DHT22;6974;53.606;9.872;2022-08-19T10:54:23;20.70;99.90
13806;DHT22;6974;53.606;9.872;2022-08-19T10:57:10;20.70;99.90
13806;DHT22;6974;53.606;9.872;2022-08-19T10:59:36;20.80;99.90
13806;DHT22;6974;53.606;9.872;2022-08-19T11:02:07;20.90;99.90
13806;DHT22;6974;53.606;9.872;2022-08-19T11:04:35;21.00;99.90
13806;DHT22;6974;53.606;9.872;2022-08-19T11:07:03;21.10;99.90
13806;DHT22;6974;53.606;9.872;2022-08-19T11:09:31;21.10;99.90
13806;DHT22;6974;53.606;9.872;2022-08-19T11:11:58;21.20;99.90
13806;DHT22;6974;53.606;9.872;2022-08-19T11:14:25;21.30;99.90
13806;DHT22;6974;53.606;9.872;2022-08-19T11:16:56;21.50;99.90
13806;DHT22;6974;53.606;9.872;2022-08-19T11:19:23;21.50;99.90
13806;DHT22;6974;53.606;9.872;2022-08-19T11:21:52;21.60;99.90
13806;DHT22;6974;53.606;9.872;2022-08-19T11:24:22;21.60;99.90
13806;DHT22;6974;53.606;9.872;2022-08-19T11:26:53;21.70;99.90
13806;DHT22;6974;53.606;9.872;2022-08-19T11:29:23;21.70;99.90
13806;DHT22;6974;53.606;9.872;2022-08-19T11:31:53;21.70;99.90
13806;DHT22;6974;53.606;9.872;2022-08-19T11:34:22;21.70;99.90
13806;DHT22;6974;53.606;9.872;2022-08-19T11:36:50;21.70;99.90
13806;DHT22;6974;53.606;9.872;2022-08-19T11:39:20;21.60;99.90
13806;DHT22;6974;53.606;9.872;2022-08-19T11:41:47;21.50;99.90
13806;DHT22;6974;53.606;9.872;2022-08-19T11:44:16;21.50;99.90
13806;DHT22;6974;53.606;9.872;2022-08-19T11:46:43;21.50;99.90
13806;DHT22;6974;53.606;9.872;2022-08-19T11:49:11;21.60;99.90
13806;DHT22;6974;53.606;9.872;2022-08-19T11:51:38;21.60;99.90
13806;DHT22;6974;53.606;9.872;2022-08-19T11:54:07;21.70;99.90
13806;DHT22;6974;53.606;9.872;2022-08-19T11:56:36;21.70;99.90
13806;DHT22;6974;53.606;9.872;2022-08-19T11:59:03;21.80;99.90
13806;DHT22;6974;53.606;9.872;2022-08-19T12:01:31;21.80;99.90
13806;DHT22;6974;53.606;9.872;2022-08-19T12:03:58;21.90;99.90
13806;DHT22;6974;53.606;9.872;2022-08-19T12:06:28;22.00;99.90
13806;DHT22;6974;53.606;9.872;2022-08-19T12:08:55;22.10;99.90
13806;DHT22;6974;53.606;9.872;2022-08-19T12:11:23;22.10;99.90
13806;DHT22;6974;53.606;9.872;2022-08-19T12:13:50;22.20;99.90
13806;DHT22;6974;53.606;9.872;2022-08-19T12:16:18;22.20;99.90
13806;DHT22;6974;53.606;9.872;2022-08-19T12:18:47;22.30;99.90
13806;DHT22;6974;53.606;9.872;2022-08-19T12:21:18;22.50;99.90
13806;DHT22;6974;53.606;9.872;2022-08-19T12:23:47;22.60;99.90
13806;DHT22;6974;53.606;9.872;2022-08-19T12:26:14;22.80;99.90
13806;DHT22;6974;53.606;9.872;2022-08-19T12:28:41;22.90;99.90
13806;DHT22;6974;53.606;9.872;2022-08-19T12:31:08;23.00;99.90
13806;DHT22;6974;53.606;9.872;2022-08-19T12:33:37;23.20;99.90
13806;DHT22;6974;53.606;9.872;2022-08-19T12:36:07;23.30;99.90
13806;DHT22;6974;53.606;9.872;2022-08-19T12:38:35;23.40;99.90
13806;DHT22;6974;53.606;9.872;2022-08-19T12:41:03;23.40;99.90
13806;DHT22;6974;53.606;9.872;2022-08-19T12:43:32;23.40;99.90
13806;DHT22;6974;53.606;9.872;2022-08-19T12:46:00;23.50;99.90
13806;DHT22;6974;53.606;9.872;2022-08-19T12:48:27;23.70;99.90
13806;DHT22;6974;53.606;9.872;2022-08-19T12:50:54;23.80;99.90
13806;DHT22;6974;53.606;9.872;2022-08-19T12:53:23;23.70;99.90
13806;DHT22;6974;53.606;9.872;2022-08-19T12:55:55;23.60;99.90
13806;DHT22;6974;53.606;9.872;2022-08-19T12:58:22;23.50;99.90
13806;DHT22;6974;53.606;9.872;2022-08-19T13:00:49;23.40;99.90
13806;DHT22;6974;53.606;9.872;2022-08-19T13:03:16;23.40;99.90
13806;DHT22;6974;53.606;9.872;2022-08-19T13:05:43;23.30;99.90
13806;DHT22;6974;53.606;9.872;2022-08-19T13:08:10;23.30;99.90
13806;DHT22;6974;53.606;9.872;2022-08-19T13:10:38;23.30;99.90
13806;DHT22;6974;53.606;9.872;2022-08-19T13:13:07;23.30;99.90
13806;DHT22;6974;53.606;9.872;2022-08-19T13:15:36;23.20;99.90
13806;DHT22;6974;53.606;9.872;2022-08-19T13:18:03;23.10;99.90
13806;DHT22;6974;53.606;9.872;2022-08-19T13:20:30;23.10;99.90
13806;DHT22;6974;53.606;9.872;2022-08-19T13:22:57;23.00;99.90
13806;DHT22;6974;53.606;9.872;2022-08-19T13:25:24;23.10;99.90
13806;DHT22;6974;53.606;9.872;2022-08-19T13:27:53;23.00;99.90
13806;DHT22;6974;53.606;9.872;2022-08-19T13:30:21;23.00;99.90
13806;DHT22;6974;53.606;9.872;2022-08-19T13:33:06;23.00;99.90
13806;DHT22;6974;53.606;9.872;2022-08-19T13:35:46;23.00;99.90
13806;DHT22;6974;53.606;9.872;2022-08-19T13:38:15;23.00;99.90
13806;DHT22;6974;53.606;9.872;2022-08-19T13:40:42;23.00;99.90
13806;DHT22;6974;53.606;9.872;2022-08-19T13:43:10;23.00;99.90
13806;DHT22;6974;53.606;9.872;2022-08-19T13:45:37;23.00;99.90
13806;DHT22;6974;53.606;9.872;2022-08-19T13:48:06;23.00;99.90
13806;DHT22;6974;53.606;9.872;2022-08-19T13:50:37;23.10;99.90
13806;DHT22;6974;53.606;9.872;2022-08-19T13:53:04;23.00;99.90
13806;DHT22;6974;53.606;9.872;2022-08-19T13:55:31;23.00;99.90
13806;DHT22;6974;53.606;9.872;2022-08-19T13:58:00;22.90;99.90
13806;DHT22;6974;53.606;9.872;2022-08-19T14:00:34;23.00;99.90
13806;DHT22;6974;53.606;9.872;2022-08-19T14:03:02;23.00;99.90
13806;DHT22;6974;53.606;9.872;2022-08-19T14:05:30;23.00;99.90
13806;DHT22;6974;53.606;9.872;2022-08-19T14:07:57;23.10;99.90
13806;DHT22;6974;53.606;9.872;2022-08-19T14:10:25;23.10;99.90
13806;DHT22;6974;53.606;9.872;2022-08-19T14:12:54;23.10;99.90
13806;DHT22;6974;53.606;9.872;2022-08-19T14:15:23;23.00;99.90
13806;DHT22;6974;53.606;9.872;2022-08-19T14:17:52;23.00;99.90
13806;DHT22;6974;53.606;9.872;2022-08-19T14:20:20;23.20;99.90
13806;DHT22;6974;53.606;9.872;2022-08-19T14:22:48;23.30;99.90
13806;DHT22;6974;53.606;9.872;2022-08-19T14:25:17;23.30;99.90
13806;DHT22;6974;53.606;9.872;2022-08-19T14:27:47;23.40;99.90
13806;DHT22;6974;53.606;9.872;2022-08-19T14:30:16;23.50;99.90
13806;DHT22;6974;53.606;9.872;2022-08-19T14:32:43;23.60;99.90
13806;DHT22;6974;53.606;9.872;2022-08-19T14:35:13;23.60;99.90
13806;DHT22;6974;53.606;9.872;2022-08-19T14:37:45;23.50;99.90
13806;DHT22;6974;53.606;9.872;2022-08-19T14:40:14;23.50;99.90
13806;DHT22;6974;53.606;9.872;2022-08-19T14:42:43;23.40;99.90
13806;DHT22;6974;53.606;9.872;2022-08-19T14:45:11;23.40;99.90
13806;DHT22;6974;53.606;9.872;2022-08-19T14:47:38;23.30;99.90
13806;DHT22;6974;53.606;9.872;2022-08-19T14:50:11;23.20;99.90
13806;DHT22;6974;53.606;9.872;2022-08-19T14:52:39;23.20;99.90
13806;DHT22;6974;53.606;9.872;2022-08-19T14:55:08;23.30;99.90
13806;DHT22;6974;53.606;9.872;2022-08-19T14:57:36;23.30;99.90
13806;DHT22;6974;53.606;9.872;2022-08-19T15:00:04;23.40;99.90
13806;DHT22;6974;53.606;9.872;2022-08-19T15:02:31;23.50;99.90
13806;DHT22;6974;53.606;9.872;2022-08-19T15:04:58;23.60;99.90
13806;DHT22;6974;53.606;9.872;2022-08-19T15:07:26;23.90;99.90
13806;DHT22;6974;53.606;9.872;2022-08-19T15:09:53;24.20;99.90
13806;DHT22;6974;53.606;9.872;2022-08-19T15:12:20;24.50;99.90
13806;DHT22;6974;53.606;9.872;2022-08-19T15:14:48;24.60;99.90
13806;DHT22;6974;53.606;9.872;2022-08-19T15:17:16;24.70;99.90
13806;DHT22;6974;53.606;9.872;2022-08-19T15:19:43;24.80;99.90
13806;DHT22;6974;53.606;9.872;2022-08-19T15:22:10;25.00;99.90
13806;DHT22;6974;53.606;9.872;2022-08-19T15:24:38;25.10;99.90
13806;DHT22;6974;53.606;9.872;2022-08-19T15:27:05;25.20;99.90
13806;DHT22;6974;53.606;9.872;2022-08-19T15:29:31;25.20;99.90
13806;DHT22;6974;53.606;9.872;2022-08-19T15:31:58;25.10;99.90
13806;DHT22;6974;53.606;9.872;2022-08-19T15:34:25;25.00;99.90
13806;DHT22;6974;53.606;9.872;2022-08-19T15:36:52;25.00;99.90
13806;DHT22;6974;53.606;9.872;2022-08-19T15:39:19;25.10;99.90
13806;DHT22;6974;53.606;9.872;2022-08-19T15:41:47;25.20;99.90
13806;DHT22;6974;53.606;9.872;2022-08-19T15:44:17;25.10;99.90
13806;DHT22;6974;53.606;9.872;2022-08-19T15:46:46;25.00;99.90
13806;DHT22;6974;53.606;9.872;2022-08-19T15:49:16;24.80;99.90
13806;DHT22;6974;53.606;9.872;2022-08-19T15:51:45;24.70;99.90
13806;DHT22;6974;53.606;9.872;2022-08-19T15:54:18;24.60;99.90